Time;durP1;ratioP1;P1;durP2;ratioP2;P2;SDS_P1;SDS_P2;PMS_P1;PMS_P2;Temp;Humidity;BMP_temperature;BMP_pressure;BME280_temperature;BME280_humidity;BME280_pressure;Samples;Min_cycle;Max_cycle;Signal;HPM_P1;HPM_P2
2022/09/01 00:01:26;;;;;;;17.23;15.70;;;;;;;17.52;94.65;95866.41;4974678;28;20183;-82
2022/09/01 00:03:53;;;;;;;16.85;15.10;;;;;;;17.54;94.08;95852.16;4968869;28;20200;-82
2022/09/01 00:06:24;;;;;;;16.90;15.30;;;;;;;17.55;93.88;95850.34;4974724;28;20278;-83
2022/09/01 00:08:52;;;;;;;16.02;14.52;;;;;;;17.63;93.86;95854.50;4975352;28;20259;-81
2022/09/01 00:11:20;;;;;;;16.45;14.95;;;;;;;17.65;93.33;95860.34;4974062;28;20699;-79
2022/09/01 00:13:49;;;;;;;17.75;16.10;;;;;;;17.57;93.61;95861.34;4975053;28;20292;-79
2022/09/01 00:16:16;;;;;;;18.02;16.27;;;;;;;17.53;93.40;95862.78;4974848;28;20226;-83
2022/09/01 00:18:44;;;;;;;18.08;16.38;;;;;;;17.48;93.05;95855.63;4975299;28;20212;-82
2022/09/01 00:21:12;;;;;;;17.75;16.13;;;;;;;17.50;92.60;95858.81;4975036;28;20672;-82
2022/09/01 00:23:39;;;;;;;17.52;15.82;;;;;;;17.53;92.56;95853.16;4975105;28;20193;-83
2022/09/01 00:26:06;;;;;;;18.17;16.55;;;;;;;17.55;93.08;95856.34;4973917;28;20343;-82
2022/09/01 00:28:33;;;;;;;18.05;16.35;;;;;;;17.62;92.83;95861.53;4974535;28;20236;-82
2022/09/01 00:31:00;;;;;;;17.60;15.90;;;;;;;17.68;92.68;95859.91;4974507;28;20199;-82
2022/09/01 00:33:27;;;;;;;17.33;15.77;;;;;;;17.72;92.86;95861.84;4975045;28;20200;-83
2022/09/01 00:35:54;;;;;;;18.77;17.05;;;;;;;17.65;92.39;95855.94;4975263;28;20672;-82
2022/09/01 00:38:20;;;;;;;19.02;17.20;;;;;;;17.66;93.05;95851.50;4974544;28;20298;-82
2022/09/01 00:40:47;;;;;;;18.70;17.00;;;;;;;17.64;93.25;95849.13;4974498;28;20200;-82
2022/09/01 00:43:16;;;;;;;19.10;17.25;;;;;;;17.66;93.61;95848.91;4974605;28;20200;-82
2022/09/01 00:45:43;;;;;;;19.83;18.02;;;;;;;17.57;93.93;95840.53;4975555;28;20193;-83
2022/09/01 00:48:12;;;;;;;18.35;16.63;;;;;;;17.68;93.29;95841.69;4974038;28;20228;-82
2022/09/01 00:50:39;;;;;;;19.63;17.83;;;;;;;17.65;92.41;95844.72;4974953;28;20283;-82
2022/09/01 00:53:07;;;;;;;19.27;17.35;;;;;;;17.48;92.71;95840.00;4975118;28;20203;-82
2022/09/01 00:55:37;;;;;;;19.33;17.45;;;;;;;17.45;92.74;95840.44;4975163;28;20203;-82
2022/09/01 00:58:06;;;;;;;18.60;16.80;;;;;;;17.49;92.67;95841.63;4973698;28;20298;-82
2022/09/01 01:00:39;;;;;;;19.00;17.20;;;;;;;17.45;93.44;95847.44;4972769;28;20691;-82
2022/09/01 01:03:07;;;;;;;19.02;17.33;;;;;;;17.33;93.67;95843.91;4974423;28;20215;-82
2022/09/01 01:05:39;;;;;;;19.80;17.92;;;;;;;17.38;93.33;95851.91;4974369;28;20203;-82
2022/09/01 01:08:07;;;;;;;18.25;16.55;;;;;;;17.38;93.16;95850.09;4973472;28;20228;-82
2022/09/01 01:10:37;;;;;;;21.45;17.13;;;;;;;17.45;93.23;95848.25;4973146;28;21001;-82
2022/09/01 01:13:08;;;;;;;18.55;16.75;;;;;;;17.50;92.56;95845.00;4974960;28;20201;-82
2022/09/01 01:15:35;;;;;;;17.92;16.30;;;;;;;17.48;93.50;95847.81;4974979;28;20251;-82
2022/09/01 01:18:01;;;;;;;19.20;17.42;;;;;;;17.57;91.64;95845.72;4973569;28;21204;-83
2022/09/01 01:23:25;;;;;;;18.58;16.80;;;;;;;17.70;91.94;95837.84;4970550;28;20211;-82
2022/09/01 01:25:56;;;;;;;17.83;16.13;;;;;;;17.83;91.17;95834.31;4973453;28;20258;-82
2022/09/01 01:28:25;;;;;;;18.15;16.45;;;;;;;17.72;91.63;95838.41;4973413;28;20224;-82
2022/09/01 01:30:54;;;;;;;18.92;17.15;;;;;;;17.66;93.04;95838.50;4972636;28;20208;-82
2022/09/01 01:33:23;;;;;;;18.33;16.63;;;;;;;17.74;92.62;95831.19;4975603;28;20220;-82
2022/09/01 01:35:50;;;;;;;18.05;16.33;;;;;;;17.87;91.80;95838.91;4974601;28;20196;-82
2022/09/01 01:38:19;;;;;;;19.20;17.33;;;;;;;17.80;92.06;95832.13;4975289;28;20311;-82
2022/09/01 01:40:46;;;;;;;18.35;16.65;;;;;;;17.77;91.61;95838.56;4974701;28;20200;-82
2022/09/01 01:43:21;;;;;;;19.27;17.58;;;;;;;17.81;91.58;95836.34;4975394;28;20223;-82
2022/09/01 01:45:50;;;;;;;19.05;17.25;;;;;;;17.81;91.77;95829.31;4967866;28;20571;-82
2022/09/01 01:48:22;;;;;;;19.00;17.30;;;;;;;17.80;91.63;95829.53;4974543;28;20224;-83
2022/09/01 01:50:49;;;;;;;18.13;16.33;;;;;;;17.74;91.75;95825.19;4975218;28;20226;-83
2022/09/01 01:53:18;;;;;;;20.02;18.13;;;;;;;17.57;91.91;95823.09;4976370;28;20208;-82
2022/09/01 01:55:47;;;;;;;20.70;18.80;;;;;;;17.47;91.86;95829.81;4975748;28;20251;-82
2022/09/01 01:58:15;;;;;;;19.75;17.90;;;;;;;17.31;93.01;95827.75;4975089;28;20623;-82
2022/09/01 02:00:43;;;;;;;21.00;19.00;;;;;;;17.24;93.90;95833.00;4974865;28;20208;-82
2022/09/01 02:03:13;;;;;;;20.55;18.63;;;;;;;17.33;93.61;95818.69;4975898;28;20247;-83
2022/09/01 02:05:40;;;;;;;19.70;17.77;;;;;;;17.35;93.42;95821.88;4975414;28;20205;-82
2022/09/01 02:08:09;;;;;;;20.42;18.20;;;;;;;17.31;93.70;95825.16;4974483;28;20224;-83
2022/09/01 02:10:40;;;;;;;21.23;19.23;;;;;;;17.30;93.98;95828.75;4974224;28;20220;-82
2022/09/01 02:13:10;;;;;;;19.92;18.02;;;;;;;17.25;94.08;95830.19;4974493;28;20258;-82
2022/09/01 02:15:43;;;;;;;19.23;17.48;;;;;;;17.31;93.45;95825.16;4974862;28;20196;-82
2022/09/01 02:18:12;;;;;;;20.48;18.38;;;;;;;17.34;93.55;95822.09;4973791;28;20239;-83
2022/09/01 02:20:39;;;;;;;19.17;17.38;;;;;;;17.25;92.55;95824.97;4973794;28;20283;-83
2022/09/01 02:23:09;;;;;;;18.85;17.10;;;;;;;17.24;93.33;95825.19;4974944;28;20283;-83
2022/09/01 02:25:37;;;;;;;17.75;16.10;;;;;;;17.35;92.48;95829.69;4974715;28;20208;-82
2022/09/01 02:28:08;;;;;;;18.08;16.38;;;;;;;17.30;91.64;95823.56;4974082;28;20228;-82
2022/09/01 02:30:36;;;;;;;17.83;16.23;;;;;;;17.28;91.15;95826.34;4973557;28;20188;-83
2022/09/01 02:33:04;;;;;;;17.98;16.30;;;;;;;17.29;91.12;95821.94;4974498;28;20607;-83
2022/09/01 02:35:33;;;;;;;16.63;15.10;;;;;;;17.32;91.08;95830.09;4973960;28;20220;-83
2022/09/01 02:37:59;;;;;;;15.98;14.45;;;;;;;17.32;90.27;95835.31;4973063;28;20231;-82
2022/09/01 02:40:29;;;;;;;16.48;15.00;;;;;;;17.27;90.84;95837.78;4972858;28;20196;-83
2022/09/01 02:42:55;;;;;;;16.92;15.40;;;;;;;17.27;90.99;95830.75;4973065;28;20223;-82
2022/09/01 02:45:23;;;;;;;17.67;16.08;;;;;;;17.25;90.87;95832.78;4973903;28;20200;-82
2022/09/01 02:47:50;;;;;;;18.23;16.52;;;;;;;17.28;90.39;95834.16;4972748;28;20306;-82
2022/09/01 02:50:18;;;;;;;18.08;16.38;;;;;;;17.16;91.04;95835.84;4972830;28;20223;-82
2022/09/01 02:52:47;;;;;;;18.02;16.33;;;;;;;17.15;91.71;95836.84;4973371;28;20200;-82
2022/09/01 02:55:20;;;;;;;17.65;16.02;;;;;;;17.21;91.10;95829.00;4974171;28;20580;-82
2022/09/01 02:57:48;;;;;;;17.73;16.13;;;;;;;17.24;90.54;95831.19;4972790;28;20224;-83
2022/09/01 03:00:21;;;;;;;17.75;16.10;;;;;;;17.26;90.92;95836.97;4973472;28;20196;-82
2022/09/01 03:02:51;;;;;;;17.67;16.08;;;;;;;17.22;90.77;95830.59;4973547;28;20200;-82
2022/09/01 03:05:24;;;;;;;18.13;16.52;;;;;;;17.21;90.91;95839.41;4973605;28;20304;-83
2022/09/01 03:07:55;;;;;;;18.20;16.40;;;;;;;17.22;90.40;95833.19;4971984;28;20282;-82
2022/09/01 03:10:27;;;;;;;17.38;15.73;;;;;;;17.16;90.87;95831.44;4973695;28;20192;-83
2022/09/01 03:12:54;;;;;;;16.77;15.15;;;;;;;17.22;90.24;95827.19;4973829;28;20283;-83
2022/09/01 03:15:22;;;;;;;16.92;15.43;;;;;;;17.21;90.12;95817.78;4973770;28;20223;-82
2022/09/01 03:17:48;;;;;;;16.67;15.13;;;;;;;17.13;89.89;95820.66;4973376;28;20665;-82
2022/09/01 03:20:15;;;;;;;17.08;15.57;;;;;;;17.16;89.42;95817.63;4973659;28;20693;-82
2022/09/01 03:22:43;;;;;;;16.83;15.27;;;;;;;17.06;90.05;95818.09;4974907;28;20204;-83
2022/09/01 03:25:10;;;;;;;16.30;14.80;;;;;;;17.07;90.92;95814.50;4974298;28;20220;-82
2022/09/01 03:27:36;;;;;;;16.30;14.77;;;;;;;17.15;90.07;95818.63;4973130;28;20224;-82
2022/09/01 03:30:03;;;;;;;15.35;14.05;;;;;;;17.14;89.53;95814.44;4972929;28;20224;-82
2022/09/01 03:32:31;;;;;;;14.90;13.50;;;;;;;17.06;88.91;95818.09;4973520;28;20247;-82
2022/09/01 03:34:58;;;;;;;14.38;13.07;;;;;;;16.98;88.88;95810.53;4973374;28;20204;-83
2022/09/01 03:37:25;;;;;;;14.93;13.57;;;;;;;17.05;89.31;95807.91;4973181;28;20232;-82
2022/09/01 03:39:53;;;;;;;15.45;14.02;;;;;;;17.08;89.45;95812.69;4972992;28;20220;-82
2022/09/01 03:42:26;;;;;;;15.45;14.02;;;;;;;17.12;89.09;95814.66;4972492;28;20196;-82
2022/09/01 03:44:53;;;;;;;14.50;13.23;;;;;;;17.17;88.85;95809.59;4973509;28;20196;-82
2022/09/01 03:47:20;;;;;;;15.38;13.98;;;;;;;17.05;89.92;95806.09;4968704;28;20219;-82
2022/09/01 03:49:48;;;;;;;14.95;13.55;;;;;;;17.08;89.40;95799.69;4973442;28;20266;-83
2022/09/01 03:52:16;;;;;;;15.98;14.50;;;;;;;17.00;89.49;95797.34;4972874;28;20192;-83
2022/09/01 03:54:44;;;;;;;14.88;13.48;;;;;;;17.00;89.67;95795.53;4973249;28;20650;-82
2022/09/01 03:57:12;;;;;;;13.55;12.43;;;;;;;17.06;89.08;95799.09;4971827;28;20231;-83
2022/09/01 03:59:44;;;;;;;15.05;13.65;;;;;;;17.08;89.12;95797.09;4972646;28;20279;-82
2022/09/01 04:02:11;;;;;;;14.10;12.80;;;;;;;17.18;88.91;95792.19;4967440;28;20199;-82
2022/09/01 04:04:38;;;;;;;15.20;13.88;;;;;;;17.14;88.09;95789.22;4972917;28;20205;-82
2022/09/01 04:07:04;;;;;;;15.00;13.60;;;;;;;17.08;88.05;95789.28;4971863;28;20251;-83
2022/09/01 04:09:33;;;;;;;14.85;13.55;;;;;;;17.14;88.27;95788.41;4971325;28;20220;-82
2022/09/01 04:12:00;;;;;;;15.20;13.82;;;;;;;17.18;87.90;95784.38;4971427;28;20218;-82
2022/09/01 04:14:28;;;;;;;15.32;13.93;;;;;;;17.13;88.01;95787.63;4973229;28;20207;-82
2022/09/01 04:19:38;;;;;;;16.30;14.80;;;;;;;17.15;88.51;95787.41;4965529;28;20222;-82
2022/09/01 04:22:06;;;;;;;16.58;15.00;;;;;;;17.19;88.45;95789.38;4973434;28;20207;-82
2022/09/01 04:24:33;;;;;;;15.82;14.43;;;;;;;17.23;88.36;95785.34;4974318;28;20207;-83
2022/09/01 04:27:01;;;;;;;16.05;14.57;;;;;;;17.12;88.95;95790.47;4973322;28;20232;-83
2022/09/01 04:29:30;;;;;;;17.17;15.63;;;;;;;17.16;89.06;95794.22;4972695;28;20295;-83
2022/09/01 04:32:00;;;;;;;16.80;15.20;;;;;;;17.09;89.42;95793.47;4973200;28;20196;-83
2022/09/01 04:34:27;;;;;;;17.13;15.40;;;;;;;17.10;90.18;95797.69;4973081;28;20196;-83
2022/09/01 04:36:55;;;;;;;18.08;16.45;;;;;;;17.02;90.96;95793.53;4975418;28;20224;-83
2022/09/01 04:39:23;;;;;;;18.13;16.42;;;;;;;17.02;90.58;95801.31;4978285;28;20323;-83
2022/09/01 04:41:50;;;;;;;19.02;17.17;;;;;;;17.00;90.20;95802.53;4977212;28;20200;-83
2022/09/01 04:44:17;;;;;;;17.88;16.25;;;;;;;17.01;90.11;95796.31;4973451;28;20207;-79
2022/09/01 04:46:49;;;;;;;19.58;17.63;;;;;;;16.97;90.24;95797.75;4973981;28;20704;-82
2022/09/01 04:49:21;;;;;;;18.13;16.42;;;;;;;17.01;89.80;95797.13;4975977;28;20278;-83
2022/09/01 04:51:49;;;;;;;19.15;17.45;;;;;;;16.89;89.93;95797.03;4975669;28;20232;-83
2022/09/01 04:54:16;;;;;;;19.65;17.63;;;;;;;16.95;90.12;95810.16;4976142;28;20847;-83
2022/09/01 04:56:45;;;;;;;18.23;16.58;;;;;;;16.84;90.91;95809.03;4976829;28;20236;-85
2022/09/01 04:59:12;;;;;;;18.52;16.77;;;;;;;16.91;89.89;95797.59;4975694;28;20228;-80
2022/09/01 05:01:43;;;;;;;19.10;17.23;;;;;;;16.99;90.19;95808.75;4975042;28;20204;-82
2022/09/01 05:04:13;;;;;;;21.80;18.73;;;;;;;16.96;91.67;95803.97;4976616;28;20255;-81
2022/09/01 05:06:41;;;;;;;18.83;16.85;;;;;;;16.92;90.13;95804.41;4974758;28;20239;-80
2022/09/01 05:09:09;;;;;;;19.15;17.45;;;;;;;16.89;89.59;95798.81;4975809;28;20224;-80
2022/09/01 05:11:38;;;;;;;18.67;17.00;;;;;;;16.80;91.00;95789.66;4975317;28;20204;-81
2022/09/01 05:14:06;;;;;;;35.90;32.30;;;;;;;16.86;89.86;95797.44;4975188;28;20208;-81
2022/09/01 05:16:34;;;;;;;32.63;29.48;;;;;;;16.89;89.87;95798.81;4975250;28;20224;-80
2022/09/01 05:19:01;;;;;;;20.70;18.70;;;;;;;16.90;89.13;95808.22;4975755;28;20224;-81
2022/09/01 05:21:29;;;;;;;20.27;18.27;;;;;;;16.90;89.76;95808.22;4974963;28;20212;-81
2022/09/01 05:23:59;;;;;;;24.55;22.25;;;;;;;16.98;89.11;95805.34;4975889;28;20218;-81
2022/09/01 05:26:28;;;;;;;24.52;22.10;;;;;;;17.09;88.73;95809.09;4974993;28;20603;-80
2022/09/01 05:28:58;;;;;;;19.23;17.48;;;;;;;17.09;88.44;95809.88;4975221;28;20231;-81
2022/09/01 05:31:27;;;;;;;19.13;17.33;;;;;;;17.14;88.45;95807.44;4975051;28;20578;-80
2022/09/01 05:33:56;;;;;;;18.17;16.33;;;;;;;17.05;88.74;95810.50;4975286;28;20215;-81
2022/09/01 05:36:23;;;;;;;17.67;15.98;;;;;;;17.09;88.53;95796.88;4974452;28;20227;-81
2022/09/01 05:38:51;;;;;;;18.33;16.52;;;;;;;17.10;88.72;95798.47;4973357;28;20751;-81
2022/09/01 05:41:19;;;;;;;17.08;15.48;;;;;;;17.03;88.11;95808.13;4955816;28;20216;-81
2022/09/01 05:43:50;;;;;;;16.77;15.18;;;;;;;16.94;88.91;95798.97;4956387;28;20205;-81
2022/09/01 05:46:19;;;;;;;16.45;14.93;;;;;;;16.95;89.02;95799.75;4955287;28;20272;-80
2022/09/01 05:48:48;;;;;;;15.82;14.18;;;;;;;17.03;88.52;95807.31;4956524;28;20288;-81
2022/09/01 05:51:18;;;;;;;16.60;15.02;;;;;;;16.99;89.49;95800.94;4956093;28;20240;-81
2022/09/01 05:53:46;;;;;;;16.25;14.75;;;;;;;17.17;88.55;95799.19;4956492;28;20209;-80
2022/09/01 05:56:13;;;;;;;15.98;14.50;;;;;;;17.19;87.79;95793.78;4955569;28;20208;-81
2022/09/01 05:58:44;;;;;;;16.02;14.48;;;;;;;17.17;87.98;95803.59;4956049;28;20233;-81
2022/09/01 06:01:16;;;;;;;15.00;13.60;;;;;;;17.07;87.30;95798.91;4955947;28;20200;-81
2022/09/01 06:03:43;;;;;;;14.57;13.30;;;;;;;17.04;87.19;95801.13;4964301;28;20207;-81
2022/09/01 06:06:11;;;;;;;14.50;13.20;;;;;;;16.88;87.05;95803.22;4974950;28;20220;-81
2022/09/01 06:08:39;;;;;;;15.20;13.80;;;;;;;16.75;87.56;95805.09;4975508;28;20222;-82
2022/09/01 06:11:11;;;;;;;15.07;13.65;;;;;;;16.79;88.29;95806.28;4975319;28;20582;-82
2022/09/01 06:13:41;;;;;;;14.25;12.80;;;;;;;16.72;87.20;95802.94;4976128;28;20232;-82
2022/09/01 06:16:07;;;;;;;14.57;13.18;;;;;;;16.62;86.43;95803.34;4975685;28;20204;-82
2022/09/01 06:18:34;;;;;;;14.93;13.30;;;;;;;16.67;86.70;95811.34;4975239;28;20726;-81
2022/09/01 06:21:03;;;;;;;13.73;12.38;;;;;;;16.80;86.88;95805.25;4974879;28;20204;-81
2022/09/01 06:23:30;;;;;;;13.00;11.82;;;;;;;16.81;85.67;95807.66;4975127;28;20820;-81
2022/09/01 06:25:58;;;;;;;13.65;12.38;;;;;;;16.86;85.61;95807.03;4975291;28;20205;-83
2022/09/01 06:28:28;;;;;;;13.13;11.93;;;;;;;16.88;85.63;95810.22;4974124;28;20610;-80
2022/09/01 06:30:56;;;;;;;13.38;12.07;;;;;;;16.74;84.34;95806.13;4975426;28;20200;-79
2022/09/01 06:33:24;;;;;;;13.00;11.80;;;;;;;16.73;85.14;95814.94;4975220;28;20640;-80
2022/09/01 06:35:54;;;;;;;12.95;11.75;;;;;;;16.73;84.41;95812.31;4974285;28;20210;-80
2022/09/01 06:38:21;;;;;;;12.93;11.73;;;;;;;16.76;84.26;95815.28;4972871;28;20235;-80
2022/09/01 06:40:48;;;;;;;13.35;12.07;;;;;;;16.84;84.60;95816.84;4973816;28;20200;-81
2022/09/01 06:43:16;;;;;;;12.80;11.60;;;;;;;16.91;85.25;95810.63;4973748;28;20200;-80
2022/09/01 06:45:48;;;;;;;13.32;12.13;;;;;;;16.98;84.11;95815.75;4973621;28;20208;-80
2022/09/01 06:48:16;;;;;;;13.38;12.07;;;;;;;16.99;84.04;95819.16;4972881;28;20263;-81
2022/09/01 06:50:44;;;;;;;13.52;12.23;;;;;;;17.02;84.65;95826.53;4974212;28;20227;-81
2022/09/01 06:53:12;;;;;;;15.13;13.57;;;;;;;16.95;83.90;95823.16;4976154;28;20291;-81
2022/09/01 06:55:40;;;;;;;13.45;12.10;;;;;;;16.88;83.34;95821.44;4976427;28;20211;-82
2022/09/01 06:58:08;;;;;;;14.40;12.63;;;;;;;16.77;84.03;95821.28;4974265;28;20302;-80
2022/09/01 07:00:40;;;;;;;13.43;12.13;;;;;;;16.80;84.61;95824.28;4975716;28;20203;-81
2022/09/01 07:03:08;;;;;;;14.75;13.30;;;;;;;16.84;82.97;95828.06;4976056;28;20853;-81
2022/09/01 07:05:38;;;;;;;14.65;13.25;;;;;;;16.90;82.57;95845.44;4975840;28;20889;-81
2022/09/01 07:08:07;;;;;;;13.40;12.20;;;;;;;16.79;82.81;95842.69;4975673;28;20262;-81
2022/09/01 07:10:34;;;;;;;12.80;11.70;;;;;;;16.80;83.43;95845.06;4974885;28;20208;-82
2022/09/01 07:13:00;;;;;;;13.27;12.05;;;;;;;16.80;83.20;95844.28;4976229;28;20219;-80
2022/09/01 07:15:29;;;;;;;13.57;12.38;;;;;;;16.91;83.20;95843.63;4975102;28;20719;-81
2022/09/01 07:17:57;;;;;;;12.98;11.77;;;;;;;17.07;83.05;95845.72;4974838;28;20311;-80
2022/09/01 07:20:27;;;;;;;13.63;12.32;;;;;;;17.03;82.78;95849.75;4974815;28;20232;-81
2022/09/01 07:22:57;;;;;;;13.60;12.30;;;;;;;17.04;82.75;95850.53;4975695;28;20204;-80
2022/09/01 07:25:24;;;;;;;12.60;11.40;;;;;;;16.90;82.76;95858.44;4974742;28;20663;-81
2022/09/01 07:27:50;;;;;;;11.85;10.75;;;;;;;16.82;83.02;95860.47;4975632;28;20375;-80
2022/09/01 07:30:17;;;;;;;12.00;10.80;;;;;;;16.83;83.26;95865.47;4974363;28;20200;-82
2022/09/01 07:32:44;;;;;;;12.18;11.05;;;;;;;16.88;82.60;95868.25;4974005;28;20202;-81
2022/09/01 07:35:11;;;;;;;10.30;9.18;;;;;;;16.94;82.45;95858.78;4972976;28;20224;-81
2022/09/01 07:37:37;;;;;;;10.07;9.15;;;;;;;17.01;82.46;95851.75;4973155;28;20263;-79
2022/09/01 07:40:08;;;;;;;9.40;8.60;;;;;;;17.13;80.88;95851.88;4960625;28;20640;-79
2022/09/01 07:42:35;;;;;;;9.20;8.40;;;;;;;17.09;78.58;95864.53;4954365;28;20215;-79
2022/09/01 07:45:07;;;;;;;8.68;7.97;;;;;;;17.13;79.53;95857.06;4958192;28;20200;-81
2022/09/01 07:47:36;;;;;;;8.82;7.53;;;;;;;17.28;78.95;95855.00;4972913;28;20319;-81
2022/09/01 07:50:04;;;;;;;9.00;8.30;;;;;;;17.32;77.46;95856.13;4972624;28;20232;-79
2022/09/01 07:52:30;;;;;;;9.13;8.30;;;;;;;17.48;79.02;95863.44;4973996;28;20203;-81
2022/09/01 07:54:56;;;;;;;8.20;7.45;;;;;;;17.78;76.29;95861.00;4973975;28;20703;-80
2022/09/01 07:57:25;;;;;;;7.57;6.97;;;;;;;17.77;74.48;95861.22;4972522;28;20231;-81
2022/09/01 07:59:54;;;;;;;7.85;7.18;;;;;;;17.66;75.27;95872.34;4973624;28;20224;-81
2022/09/01 08:02:20;;;;;;;7.88;7.18;;;;;;;17.74;75.16;95874.66;4975042;28;20223;-81
2022/09/01 08:04:47;;;;;;;7.68;7.07;;;;;;;17.78;75.14;95871.44;4976792;28;20307;-81
2022/09/01 08:07:14;;;;;;;7.88;7.07;;;;;;;17.85;76.22;95871.38;4976561;28;20228;-80
2022/09/01 08:09:41;;;;;;;7.45;6.75;;;;;;;17.85;74.82;95868.78;4975831;28;20492;-82
2022/09/01 08:12:08;;;;;;;7.90;7.20;;;;;;;17.73;74.33;95867.84;4976521;28;20211;-80
2022/09/01 08:14:36;;;;;;;7.80;7.18;;;;;;;17.61;76.66;95872.94;4977467;28;20239;-80
2022/09/01 08:17:03;;;;;;;8.15;7.55;;;;;;;17.70;75.35;95876.94;4981037;28;20232;-81
2022/09/01 08:19:30;;;;;;;7.82;7.15;;;;;;;17.82;76.47;95880.41;4980140;28;20228;-81
2022/09/01 08:21:56;;;;;;;8.57;7.88;;;;;;;17.91;75.38;95884.31;4980493;28;20255;-80
2022/09/01 08:24:22;;;;;;;8.07;7.47;;;;;;;17.93;75.77;95879.69;4981732;28;20204;-80
2022/09/01 08:26:49;;;;;;;7.35;6.75;;;;;;;17.89;74.84;95875.94;4981036;28;20239;-81
2022/09/01 08:29:15;;;;;;;8.23;7.47;;;;;;;17.87;74.80;95885.78;4982552;28;20224;-81
2022/09/01 08:31:46;;;;;;;7.80;7.10;;;;;;;18.00;74.53;95884.84;4980387;28;20208;-81
2022/09/01 08:34:12;;;;;;;7.18;6.60;;;;;;;18.04;74.90;95882.63;4981347;28;20231;-79
2022/09/01 08:36:39;;;;;;;8.27;7.53;;;;;;;18.15;74.11;95887.09;4980167;28;20263;-80
2022/09/01 08:39:05;;;;;;;8.02;7.28;;;;;;;18.16;72.90;95888.69;4976499;28;20692;-81
2022/09/01 08:41:44;;;;;;;7.60;6.78;;;;;;;18.25;72.77;95888.22;4961105;28;20247;-81
2022/09/01 08:44:21;;;;;;;6.97;6.47;;;;;;;18.20;73.37;95892.47;4959789;28;20201;-82
2022/09/01 08:46:57;;;;;;;7.50;6.78;;;;;;;18.26;73.18;95884.59;4958707;28;20255;-80
2022/09/01 08:49:25;;;;;;;6.38;5.90;;;;;;;18.40;73.33;95884.44;4964888;28;20220;-81
2022/09/01 08:51:57;;;;;;;6.85;6.25;;;;;;;18.46;72.86;95894.81;4977179;28;20208;-80
2022/09/01 08:54:27;;;;;;;7.72;6.53;;;;;;;18.36;71.57;95889.28;4979025;28;20227;-80
2022/09/01 08:56:57;;;;;;;8.07;7.45;;;;;;;18.23;72.03;95897.25;4977181;28;20267;-80
2022/09/01 08:59:23;;;;;;;7.47;6.88;;;;;;;18.18;72.16;95887.47;4977668;28;20282;-81
2022/09/01 09:02:01;;;;;;;8.27;7.65;;;;;;;18.06;72.53;95891.03;4977811;28;20215;-82
2022/09/01 09:04:48;;;;;;;7.20;6.60;;;;;;;18.23;72.76;95889.44;4978247;28;20236;-80
2022/09/01 09:07:28;;;;;;;7.50;6.90;;;;;;;18.28;71.94;95887.75;4977809;28;20244;-81
2022/09/01 09:10:02;;;;;;;8.02;7.32;;;;;;;18.35;71.96;95889.50;4977402;28;20224;-82
2022/09/01 09:12:50;;;;;;;7.25;6.65;;;;;;;18.34;70.68;95878.28;4978406;28;20215;-81
2022/09/01 09:15:25;;;;;;;6.75;5.97;;;;;;;18.43;69.85;95894.44;4978169;28;20684;-81
2022/09/01 09:18:01;;;;;;;6.97;6.38;;;;;;;18.59;69.65;95883.44;4977645;28;20235;-81
2022/09/01 09:20:28;;;;;;;7.07;6.47;;;;;;;18.60;68.80;95883.25;4977656;28;20230;-80
2022/09/01 09:22:56;;;;;;;6.95;6.40;;;;;;;18.56;67.27;95889.88;4976558;28;20631;-82
2022/09/01 09:25:23;;;;;;;6.68;6.18;;;;;;;18.77;68.64;95900.91;4977965;28;20274;-81
2022/09/01 09:27:51;;;;;;;7.45;6.75;;;;;;;18.85;67.48;95885.75;4978035;28;20231;-81
2022/09/01 09:30:22;;;;;;;6.90;6.40;;;;;;;18.91;65.97;95890.06;4976946;28;20211;-81
2022/09/01 09:32:51;;;;;;;7.50;6.22;;;;;;;18.94;66.33;95887.00;4978364;28;20291;-81
2022/09/01 09:35:24;;;;;;;7.55;6.93;;;;;;;19.07;65.83;95887.84;4977038;28;20220;-82
2022/09/01 09:37:50;;;;;;;7.03;6.40;;;;;;;19.10;65.46;95890.00;4976969;28;20251;-80
2022/09/01 09:40:20;;;;;;;7.07;6.45;;;;;;;19.21;66.61;95894.50;4972569;28;20223;-81
2022/09/01 09:43:04;;;;;;;7.13;6.57;;;;;;;19.59;63.56;95884.50;4977609;28;20281;-82
2022/09/01 09:45:33;;;;;;;6.82;6.32;;;;;;;19.69;62.24;95891.78;4977060;28;20247;-81
2022/09/01 09:48:01;;;;;;;6.82;6.22;;;;;;;20.15;61.26;95883.16;4979052;28;20236;-80
2022/09/01 09:50:31;;;;;;;6.60;6.05;;;;;;;20.46;60.45;95879.38;4979046;28;20484;-81
2022/09/01 09:53:14;;;;;;;6.43;5.88;;;;;;;20.69;58.72;95876.69;4979595;28;20211;-80
2022/09/01 09:55:53;;;;;;;7.07;6.38;;;;;;;20.61;56.69;95874.44;4980228;28;20239;-81
2022/09/01 09:58:25;;;;;;;7.00;6.35;;;;;;;20.60;57.85;95867.63;4979412;28;20235;-81
2022/09/01 10:01:04;;;;;;;6.85;6.25;;;;;;;21.01;56.50;95869.16;4978851;28;20221;-80
2022/09/01 10:03:39;;;;;;;6.13;5.63;;;;;;;21.27;57.25;95873.06;4979622;28;20656;-80
2022/09/01 10:06:30;;;;;;;6.75;6.25;;;;;;;21.44;55.27;95861.81;4979193;28;20207;-79
2022/09/01 10:08:58;;;;;;;7.45;6.82;;;;;;;21.46;56.70;95865.78;4979580;28;20228;-80
2022/09/01 10:11:28;;;;;;;7.63;7.03;;;;;;;21.52;57.93;95861.44;4977669;28;20196;-80
2022/09/01 10:13:55;;;;;;;7.68;7.07;;;;;;;21.75;57.73;95868.31;4978971;28;20197;-79
2022/09/01 10:16:27;;;;;;;7.32;6.63;;;;;;;21.74;57.54;95859.69;4977057;28;20251;-81
2022/09/01 10:18:59;;;;;;;7.68;7.00;;;;;;;21.43;57.83;95868.88;4978317;28;20913;-80
2022/09/01 10:21:33;;;;;;;8.27;7.47;;;;;;;21.49;56.31;95857.44;4979016;28;20184;-82
2022/09/01 10:24:03;;;;;;;6.50;6.00;;;;;;;21.36;58.15;95866.41;4978864;28;20542;-82
2022/09/01 10:26:35;;;;;;;7.43;5.97;;;;;;;21.35;56.31;95859.59;4976749;28;20290;-82
2022/09/01 10:29:07;;;;;;;5.28;4.88;;;;;;;21.53;55.75;95870.88;4978882;28;20228;-83
2022/09/01 10:31:34;;;;;;;5.30;4.80;;;;;;;21.18;54.89;95856.09;4978376;28;20679;-83
2022/09/01 10:34:03;;;;;;;4.85;4.50;;;;;;;21.26;54.57;95858.38;4977276;28;20239;-83
2022/09/01 10:36:32;;;;;;;5.30;4.90;;;;;;;21.13;53.23;95863.91;4977800;28;20311;-83
2022/09/01 10:38:58;;;;;;;5.30;4.80;;;;;;;21.18;53.29;95855.31;4976068;28;20220;-83
2022/09/01 10:41:49;;;;;;;4.55;4.10;;;;;;;21.46;54.38;95857.13;4967871;28;20243;-81
2022/09/01 10:44:21;;;;;;;3.90;3.60;;;;;;;21.78;54.29;95850.28;4979938;28;20207;-81
2022/09/01 10:46:48;;;;;;;4.43;3.70;;;;;;;22.01;54.27;95858.00;4978175;28;20310;-80
2022/09/01 10:49:22;;;;;;;4.07;3.78;;;;;;;21.51;53.15;95850.16;4978009;28;20224;-83
2022/09/01 10:51:50;;;;;;;4.22;3.78;;;;;;;21.33;55.23;95855.63;4977247;28;20204;-83
2022/09/01 10:54:54;;;;;;;4.18;3.78;;;;;;;21.28;55.26;95861.56;4976230;28;20665;-83
2022/09/01 10:57:49;;;;;;;3.67;3.38;;;;;;;21.50;54.80;95859.03;4976000;28;20235;-82
2022/09/01 11:00:45;;;;;;;4.00;3.70;;;;;;;21.64;53.10;95851.66;4977521;28;20234;-83
2022/09/01 11:03:48;;;;;;;3.25;2.95;;;;;;;21.85;53.91;95850.13;4977186;28;20200;-83
2022/09/01 11:06:47;;;;;;;3.28;3.08;;;;;;;21.84;52.18;95844.09;4968572;28;20215;-84
2022/09/01 11:09:23;;;;;;;3.15;2.95;;;;;;;21.82;51.04;95840.13;4965512;28;20723;-83
2022/09/01 11:12:06;;;;;;;3.60;3.30;;;;;;;21.56;52.04;95852.03;4975009;28;20214;-83
2022/09/01 11:14:34;;;;;;;4.40;3.33;;;;;;;21.34;52.08;95854.59;4975382;28;20231;-84
2022/09/01 11:17:17;;;;;;;3.20;3.00;;;;;;;21.53;53.28;95844.69;4974155;28;20232;-83
2022/09/01 11:19:46;;;;;;;4.43;3.13;;;;;;;21.62;52.14;95853.72;4976533;28;20302;-83
2022/09/01 11:22:24;;;;;;;3.10;2.90;;;;;;;21.69;50.52;95841.25;4975780;28;20200;-82
2022/09/01 11:25:07;;;;;;;2.85;2.60;;;;;;;21.69;51.42;95842.03;4977495;28;20250;-84
2022/09/01 11:27:59;;;;;;;3.03;2.83;;;;;;;21.70;51.20;95832.34;4975676;28;20240;-83
2022/09/01 11:30:35;;;;;;;3.00;2.80;;;;;;;21.73;52.74;95831.88;4919823;28;20242;-83
2022/09/01 11:33:12;;;;;;;3.13;2.83;;;;;;;21.55;52.72;95835.50;4975239;28;20230;-84
2022/09/01 11:35:39;;;;;;;3.03;2.83;;;;;;;21.52;51.88;95833.41;4975288;28;20204;-83
2022/09/01 11:38:08;;;;;;;3.75;2.60;;;;;;;21.80;53.10;95834.31;4974147;28;20244;-83
2022/09/01 11:40:36;;;;;;;2.90;2.28;;;;;;;21.79;52.00;95824.84;4958212;28;20221;-83